sensor_id;sensor_type;location;lat;lon;timestamp;pressure;altitude;pressure_sealevel;temperature;humidity
52957;BME280;38819;42.692;23.342;2023-02-16T00:01:33;96564.47;;;1.96;67.68
52957;BME280;38819;42.692;23.342;2023-02-16T00:03:58;96580.06;;;1.99;67.59
52957;BME280;38819;42.692;23.342;2023-02-16T00:06:25;96571.22;;;1.92;67.85
52957;BME280;38819;42.692;23.342;2023-02-16T00:08:54;96579.63;;;1.95;67.81
52957;BME280;38819;42.692;23.342;2023-02-16T00:14:07;96566.09;;;1.97;67.46
52957;BME280;38819;42.692;23.342;2023-02-16T00:16:33;96567.34;;;1.94;67.63
52957;BME280;38819;42.692;23.342;2023-02-16T00:18:59;96564.28;;;1.97;67.70
52957;BME280;38819;42.692;23.342;2023-02-16T00:21:24;96569.19;;;2.00;67.59
52957;BME280;38819;42.692;23.342;2023-02-16T00:23:50;96562.03;;;2.08;67.44
52957;BME280;38819;42.692;23.342;2023-02-16T00:26:21;96565.91;;;1.98;67.63
52957;BME280;38819;42.692;23.342;2023-02-16T00:28:55;96569.63;;;1.97;67.30
52957;BME280;38819;42.692;23.342;2023-02-16T00:31:25;96569.41;;;1.92;67.85
52957;BME280;38819;42.692;23.342;2023-02-16T00:33:52;96567.75;;;1.78;67.78
52957;BME280;38819;42.692;23.342;2023-02-16T00:36:17;96571.00;;;1.73;68.14
52957;BME280;38819;42.692;23.342;2023-02-16T00:38:43;96566.72;;;1.72;68.07
52957;BME280;38819;42.692;23.342;2023-02-16T00:41:21;96576.56;;;1.85;67.80
52957;BME280;38819;42.692;23.342;2023-02-16T00:44:15;96564.69;;;1.88;67.64
52957;BME280;38819;42.692;23.342;2023-02-16T00:46:42;96561.19;;;1.80;67.63
52957;BME280;38819;42.692;23.342;2023-02-16T00:49:19;96572.66;;;1.67;68.06
52957;BME280;38819;42.692;23.342;2023-02-16T00:51:45;96566.47;;;1.60;68.26
52957;BME280;38819;42.692;23.342;2023-02-16T00:54:10;96565.47;;;1.61;68.09
52957;BME280;38819;42.692;23.342;2023-02-16T00:56:36;96568.75;;;1.63;68.12
52957;BME280;38819;42.692;23.342;2023-02-16T00:59:05;96572.03;;;1.65;68.02
52957;BME280;38819;42.692;23.342;2023-02-16T01:01:33;96568.31;;;1.53;68.27
52957;BME280;38819;42.692;23.342;2023-02-16T01:04:00;96563.38;;;1.43;68.66
52957;BME280;38819;42.692;23.342;2023-02-16T01:06:26;96560.31;;;1.53;68.38
52957;BME280;38819;42.692;23.342;2023-02-16T01:09:16;96566.88;;;1.51;68.41
52957;BME280;38819;42.692;23.342;2023-02-16T01:12:12;96562.38;;;1.51;68.11
52957;BME280;38819;42.692;23.342;2023-02-16T01:14:38;96560.13;;;1.48;68.44
52957;BME280;38819;42.692;23.342;2023-02-16T01:17:04;96551.50;;;1.46;68.55
52957;BME280;38819;42.692;23.342;2023-02-16T01:19:29;96559.13;;;1.56;68.41
52957;BME280;38819;42.692;23.342;2023-02-16T01:21:55;96554.38;;;1.44;68.52
52957;BME280;38819;42.692;23.342;2023-02-16T01:24:20;96549.84;;;1.38;68.76
52957;BME280;38819;42.692;23.342;2023-02-16T01:26:48;96544.53;;;1.38;68.67
52957;BME280;38819;42.692;23.342;2023-02-16T01:29:18;96541.69;;;1.46;68.53
52957;BME280;38819;42.692;23.342;2023-02-16T01:31:44;96544.16;;;1.55;67.86
52957;BME280;38819;42.692;23.342;2023-02-16T01:34:10;96541.47;;;1.41;68.30
52957;BME280;38819;42.692;23.342;2023-02-16T01:36:37;96538.97;;;1.26;68.82
52957;BME280;38819;42.692;23.342;2023-02-16T01:39:03;96534.69;;;1.25;68.79
52957;BME280;38819;42.692;23.342;2023-02-16T01:44:24;96535.09;;;1.29;68.44
52957;BME280;38819;42.692;23.342;2023-02-16T01:47:15;96532.19;;;1.17;69.05
52957;BME280;38819;42.692;23.342;2023-02-16T01:49:46;96529.16;;;1.34;68.52
52957;BME280;38819;42.692;23.342;2023-02-16T01:54:53;96531.38;;;1.23;68.62
52957;BME280;38819;42.692;23.342;2023-02-16T01:57:55;96522.59;;;1.23;68.78
52957;BME280;38819;42.692;23.342;2023-02-16T02:00:28;96526.28;;;1.28;68.63
52957;BME280;38819;42.692;23.342;2023-02-16T02:03:00;96531.19;;;1.32;68.64
52957;BME280;38819;42.692;23.342;2023-02-16T02:05:47;96528.13;;;1.35;68.63
52957;BME280;38819;42.692;23.342;2023-02-16T02:08:27;96529.38;;;1.32;68.38
52957;BME280;38819;42.692;23.342;2023-02-16T02:16:18;96531.78;;;1.27;68.82
52957;BME280;38819;42.692;23.342;2023-02-16T02:18:44;96529.13;;;1.27;68.65
52957;BME280;38819;42.692;23.342;2023-02-16T02:32:35;96521.13;;;1.14;68.75
52957;BME280;38819;42.692;23.342;2023-02-16T02:44:10;96516.41;;;1.09;68.43
52957;BME280;38819;42.692;23.342;2023-02-16T02:46:39;96518.44;;;1.07;68.28
52957;BME280;38819;42.692;23.342;2023-02-16T02:49:05;96512.72;;;1.10;68.30
52957;BME280;38819;42.692;23.342;2023-02-16T02:51:30;96512.50;;;1.05;68.30
52957;BME280;38819;42.692;23.342;2023-02-16T02:59:39;96518.84;;;0.97;68.50
52957;BME280;38819;42.692;23.342;2023-02-16T03:02:27;96522.50;;;0.96;68.53
52957;BME280;38819;42.692;23.342;2023-02-16T03:04:56;96524.13;;;0.90;68.87
52957;BME280;38819;42.692;23.342;2023-02-16T03:07:23;96523.50;;;0.95;68.81
52957;BME280;38819;42.692;23.342;2023-02-16T03:10:10;96522.50;;;0.96;68.60
52957;BME280;38819;42.692;23.342;2023-02-16T03:12:56;96529.00;;;0.87;69.12
52957;BME280;38819;42.692;23.342;2023-02-16T03:15:23;96520.84;;;0.95;68.33
52957;BME280;38819;42.692;23.342;2023-02-16T03:17:50;96521.53;;;1.04;68.10
52957;BME280;38819;42.692;23.342;2023-02-16T03:20:36;96523.34;;;1.10;67.58
52957;BME280;38819;42.692;23.342;2023-02-16T03:23:20;96530.03;;;0.86;68.15
52957;BME280;38819;42.692;23.342;2023-02-16T03:26:04;96523.00;;;0.71;68.77
52957;BME280;38819;42.692;23.342;2023-02-16T03:28:50;96519.53;;;0.71;69.08
52957;BME280;38819;42.692;23.342;2023-02-16T03:31:35;96517.69;;;0.71;69.03
52957;BME280;38819;42.692;23.342;2023-02-16T03:34:04;96508.91;;;0.71;69.53
52957;BME280;38819;42.692;23.342;2023-02-16T03:36:32;96512.63;;;0.83;69.14
52957;BME280;38819;42.692;23.342;2023-02-16T03:38:59;96514.03;;;0.72;69.35
52957;BME280;38819;42.692;23.342;2023-02-16T03:41:25;96515.66;;;0.73;69.72
52957;BME280;38819;42.692;23.342;2023-02-16T03:43:55;96514.84;;;0.73;69.70
52957;BME280;38819;42.692;23.342;2023-02-16T03:46:20;96515.66;;;0.73;69.63
52957;BME280;38819;42.692;23.342;2023-02-16T03:48:46;96518.94;;;0.69;69.71
52957;BME280;38819;42.692;23.342;2023-02-16T03:51:11;96522.81;;;0.73;69.37
52957;BME280;38819;42.692;23.342;2023-02-16T03:53:37;96516.50;;;0.74;69.20
52957;BME280;38819;42.692;23.342;2023-02-16T03:56:04;96525.69;;;0.78;68.85
52957;BME280;38819;42.692;23.342;2023-02-16T03:58:29;96514.63;;;0.68;69.41
52957;BME280;38819;42.692;23.342;2023-02-16T04:00:54;96524.63;;;0.66;69.32
52957;BME280;38819;42.692;23.342;2023-02-16T04:03:22;96519.53;;;0.71;68.79
52957;BME280;38819;42.692;23.342;2023-02-16T04:05:47;96520.91;;;0.60;69.18
52957;BME280;38819;42.692;23.342;2023-02-16T04:08:13;96521.72;;;0.54;69.28
52957;BME280;38819;42.692;23.342;2023-02-16T04:10:38;96513.91;;;0.46;69.48
52957;BME280;38819;42.692;23.342;2023-02-16T04:13:03;96506.94;;;0.45;69.60
52957;BME280;38819;42.692;23.342;2023-02-16T04:15:29;96509.22;;;0.48;69.45
52957;BME280;38819;42.692;23.342;2023-02-16T04:17:55;96507.34;;;0.48;69.68
52957;BME280;38819;42.692;23.342;2023-02-16T04:20:29;96507.56;;;0.47;70.21
52957;BME280;38819;42.692;23.342;2023-02-16T04:22:55;96504.47;;;0.43;69.88
52957;BME280;38819;42.692;23.342;2023-02-16T04:25:21;96505.75;;;0.47;69.89
52957;BME280;38819;42.692;23.342;2023-02-16T04:27:48;96508.19;;;0.49;69.65
52957;BME280;38819;42.692;23.342;2023-02-16T04:30:19;96509.41;;;0.46;69.73
52957;BME280;38819;42.692;23.342;2023-02-16T04:32:46;96505.78;;;0.54;69.43
52957;BME280;38819;42.692;23.342;2023-02-16T04:35:12;96505.47;;;0.35;69.67
52957;BME280;38819;42.692;23.342;2023-02-16T04:37:37;96513.88;;;0.39;69.71
52957;BME280;38819;42.692;23.342;2023-02-16T04:40:04;96511.63;;;0.43;69.74
52957;BME280;38819;42.692;23.342;2023-02-16T04:42:30;96514.13;;;0.51;68.73
52957;BME280;38819;42.692;23.342;2023-02-16T04:44:56;96510.63;;;0.44;68.45
52957;BME280;38819;42.692;23.342;2023-02-16T04:47:21;96515.13;;;0.50;68.24
52957;BME280;38819;42.692;23.342;2023-02-16T04:49:50;96509.63;;;0.51;67.76
52957;BME280;38819;42.692;23.342;2023-02-16T04:52:16;96509.84;;;0.57;67.51
52957;BME280;38819;42.692;23.342;2023-02-16T04:54:41;96514.38;;;0.63;67.02
52957;BME280;38819;42.692;23.342;2023-02-16T04:57:07;96521.53;;;0.55;67.06
52957;BME280;38819;42.692;23.342;2023-02-16T04:59:33;96520.47;;;0.50;67.20
52957;BME280;38819;42.692;23.342;2023-02-16T05:01:58;96514.50;;;0.41;67.37
52957;BME280;38819;42.692;23.342;2023-02-16T05:04:24;96527.63;;;0.49;67.28
52957;BME280;38819;42.692;23.342;2023-02-16T05:06:50;96525.34;;;0.46;67.32
52957;BME280;38819;42.692;23.342;2023-02-16T05:09:15;96521.66;;;0.41;67.45
52957;BME280;38819;42.692;23.342;2023-02-16T05:11:41;96526.94;;;0.34;67.57
52957;BME280;38819;42.692;23.342;2023-02-16T05:14:27;96533.25;;;0.33;67.63
52957;BME280;38819;42.692;23.342;2023-02-16T05:17:14;96525.69;;;0.36;67.65
52957;BME280;38819;42.692;23.342;2023-02-16T05:19:41;96533.25;;;0.33;67.72
52957;BME280;38819;42.692;23.342;2023-02-16T05:22:07;96533.97;;;0.20;68.19
52957;BME280;38819;42.692;23.342;2023-02-16T05:24:33;96535.09;;;0.32;67.53
52957;BME280;38819;42.692;23.342;2023-02-16T05:26:59;96532.59;;;0.24;67.85
52957;BME280;38819;42.692;23.342;2023-02-16T05:29:25;96536.97;;;0.39;67.54
52957;BME280;38819;42.692;23.342;2023-02-16T05:31:51;96531.66;;;0.39;67.34
52957;BME280;38819;42.692;23.342;2023-02-16T05:34:16;96540.28;;;0.47;67.35
52957;BME280;38819;42.692;23.342;2023-02-16T05:36:42;96539.19;;;0.35;67.81
52957;BME280;38819;42.692;23.342;2023-02-16T05:39:07;96544.50;;;0.35;67.78
52957;BME280;38819;42.692;23.342;2023-02-16T05:41:33;96544.50;;;0.35;67.60
52957;BME280;38819;42.692;23.342;2023-02-16T05:44:00;96547.72;;;0.24;68.13
52957;BME280;38819;42.692;23.342;2023-02-16T05:46:27;96539.59;;;0.32;68.13
52957;BME280;38819;42.692;23.342;2023-02-16T05:48:53;96542.41;;;0.24;68.36
52957;BME280;38819;42.692;23.342;2023-02-16T05:51:19;96546.25;;;0.21;68.45
52957;BME280;38819;42.692;23.342;2023-02-16T05:53:46;96549.09;;;0.20;68.45
52957;BME280;38819;42.692;23.342;2023-02-16T05:56:12;96558.97;;;0.26;68.41
52957;BME280;38819;42.692;23.342;2023-02-16T05:58:38;96550.75;;;0.21;68.49
52957;BME280;38819;42.692;23.342;2023-02-16T06:01:04;96553.84;;;0.24;68.47
52957;BME280;38819;42.692;23.342;2023-02-16T06:03:30;96546.06;;;0.23;68.58
52957;BME280;38819;42.692;23.342;2023-02-16T06:05:57;96558.63;;;0.35;68.58
52957;BME280;38819;42.692;23.342;2023-02-16T06:08:24;96557.81;;;0.42;68.20
52957;BME280;38819;42.692;23.342;2023-02-16T06:10:51;96560.06;;;0.38;68.61
52957;BME280;38819;42.692;23.342;2023-02-16T06:13:17;96559.06;;;0.39;68.64
52957;BME280;38819;42.692;23.342;2023-02-16T06:15:43;96566.66;;;0.42;68.95
52957;BME280;38819;42.692;23.342;2023-02-16T06:18:09;96571.41;;;0.53;68.73
52957;BME280;38819;42.692;23.342;2023-02-16T06:20:36;96568.13;;;0.51;69.06
52957;BME280;38819;42.692;23.342;2023-02-16T06:23:02;96574.09;;;0.60;68.68
52957;BME280;38819;42.692;23.342;2023-02-16T06:25:28;96575.94;;;0.60;68.72
52957;BME280;38819;42.692;23.342;2023-02-16T06:27:53;96571.84;;;0.57;68.77
52957;BME280;38819;42.692;23.342;2023-02-16T06:30:22;96574.91;;;0.54;68.58
52957;BME280;38819;42.692;23.342;2023-02-16T06:32:47;96578.38;;;0.54;68.46
52957;BME280;38819;42.692;23.342;2023-02-16T06:35:13;96584.09;;;0.58;68.41
52957;BME280;38819;42.692;23.342;2023-02-16T06:37:38;96580.81;;;0.56;68.36
52957;BME280;38819;42.692;23.342;2023-02-16T06:40:04;96590.22;;;0.52;68.39
52957;BME280;38819;42.692;23.342;2023-02-16T06:42:30;96587.94;;;0.49;68.34
52957;BME280;38819;42.692;23.342;2023-02-16T06:44:56;96583.69;;;0.54;68.06
52957;BME280;38819;42.692;23.342;2023-02-16T06:47:21;96581.09;;;0.68;68.14
52957;BME280;38819;42.692;23.342;2023-02-16T06:49:46;96584.22;;;0.78;67.64
52957;BME280;38819;42.692;23.342;2023-02-16T06:52:12;96587.09;;;0.83;67.44
52957;BME280;38819;42.692;23.342;2023-02-16T06:54:38;96592.84;;;0.87;67.54
52957;BME280;38819;42.692;23.342;2023-02-16T06:57:04;96587.75;;;0.85;67.49
52957;BME280;38819;42.692;23.342;2023-02-16T06:59:29;96593.72;;;0.94;67.36
52957;BME280;38819;42.692;23.342;2023-02-16T07:01:54;96587.41;;;1.08;67.19
52957;BME280;38819;42.692;23.342;2023-02-16T07:04:20;96584.03;;;1.28;66.54
52957;BME280;38819;42.692;23.342;2023-02-16T07:06:45;96585.69;;;1.29;66.12
52957;BME280;38819;42.692;23.342;2023-02-16T07:09:11;96587.09;;;1.32;66.01
52957;BME280;38819;42.692;23.342;2023-02-16T07:11:36;96587.09;;;1.32;65.94
52957;BME280;38819;42.692;23.342;2023-02-16T07:14:02;96579.97;;;1.39;65.87
52957;BME280;38819;42.692;23.342;2023-02-16T07:16:27;96567.88;;;1.36;65.75
52957;BME280;38819;42.692;23.342;2023-02-16T07:18:53;96577.94;;;1.41;65.80
52957;BME280;38819;42.692;23.342;2023-02-16T07:21:18;96562.56;;;1.43;65.90
52957;BME280;38819;42.692;23.342;2023-02-16T07:23:44;96566.03;;;1.43;66.03
52957;BME280;38819;42.692;23.342;2023-02-16T07:26:10;96567.31;;;1.54;66.33
52957;BME280;38819;42.692;23.342;2023-02-16T07:28:35;96556.47;;;1.69;65.50
52957;BME280;38819;42.692;23.342;2023-02-16T07:31:06;96561.16;;;1.74;65.27
52957;BME280;38819;42.692;23.342;2023-02-16T07:33:32;96556.88;;;1.79;65.49
52957;BME280;38819;42.692;23.342;2023-02-16T07:35:57;96549.91;;;1.85;65.29
52957;BME280;38819;42.692;23.342;2023-02-16T07:38:23;96548.09;;;1.92;65.05
52957;BME280;38819;42.692;23.342;2023-02-16T07:40:48;96558.75;;;1.99;65.41
52957;BME280;38819;42.692;23.342;2023-02-16T07:43:14;96547.03;;;2.00;65.33
52957;BME280;38819;42.692;23.342;2023-02-16T07:45:39;96551.78;;;1.98;65.20
52957;BME280;38819;42.692;23.342;2023-02-16T07:48:06;96559.16;;;1.76;65.90
52957;BME280;38819;42.692;23.342;2023-02-16T07:50:32;96560.97;;;1.69;66.28
52957;BME280;38819;42.692;23.342;2023-02-16T07:53:00;96558.50;;;1.80;66.02
52957;BME280;38819;42.692;23.342;2023-02-16T07:55:26;96556.88;;;1.79;65.87
52957;BME280;38819;42.692;23.342;2023-02-16T07:57:51;96559.97;;;1.83;66.22
52957;BME280;38819;42.692;23.342;2023-02-16T08:00:21;96558.53;;;1.94;65.90
52957;BME280;38819;42.692;23.342;2023-02-16T08:02:47;96552.97;;;2.02;65.66
52957;BME280;38819;42.692;23.342;2023-02-16T08:05:12;96559.16;;;2.16;65.42
52957;BME280;38819;42.692;23.342;2023-02-16T08:07:38;96562.22;;;2.19;65.19
52957;BME280;38819;42.692;23.342;2023-02-16T08:10:04;96554.00;;;2.28;65.40
52957;BME280;38819;42.692;23.342;2023-02-16T08:12:30;96556.47;;;2.29;65.51
52957;BME280;38819;42.692;23.342;2023-02-16T08:14:56;96558.28;;;2.35;65.70
52957;BME280;38819;42.692;23.342;2023-02-16T08:17:21;96566.91;;;2.44;65.62
52957;BME280;38819;42.692;23.342;2023-02-16T08:19:47;96559.94;;;2.43;65.83
52957;BME280;38819;42.692;23.342;2023-02-16T08:22:13;96569.13;;;2.54;65.82
52957;BME280;38819;42.692;23.342;2023-02-16T08:24:38;96564.03;;;2.46;66.21
52957;BME280;38819;42.692;23.342;2023-02-16T08:27:04;96578.38;;;2.51;66.19
52957;BME280;38819;42.692;23.342;2023-02-16T08:29:31;96572.03;;;2.59;66.15
52957;BME280;38819;42.692;23.342;2023-02-16T08:31:57;96569.94;;;2.68;65.47
52957;BME280;38819;42.692;23.342;2023-02-16T08:34:23;96571.13;;;2.78;65.35
52957;BME280;38819;42.692;23.342;2023-02-16T08:36:56;96567.25;;;2.81;65.26
52957;BME280;38819;42.692;23.342;2023-02-16T08:39:27;96569.88;;;2.88;64.77
52957;BME280;38819;42.692;23.342;2023-02-16T08:41:54;96574.59;;;2.99;64.44
52957;BME280;38819;42.692;23.342;2023-02-16T08:44:22;96563.44;;;3.09;64.32
52957;BME280;38819;42.692;23.342;2023-02-16T08:46:50;96561.75;;;3.21;63.82
52957;BME280;38819;42.692;23.342;2023-02-16T08:49:18;96565.03;;;3.23;63.79
52957;BME280;38819;42.692;23.342;2023-02-16T08:51:48;96564.16;;;3.36;63.54
52957;BME280;38819;42.692;23.342;2023-02-16T08:54:20;96562.94;;;3.25;63.59
52957;BME280;38819;42.692;23.342;2023-02-16T08:56:46;96565.00;;;3.30;63.80
52957;BME280;38819;42.692;23.342;2023-02-16T08:59:14;96559.19;;;3.40;63.62
52957;BME280;38819;42.692;23.342;2023-02-16T09:01:40;96550.09;;;3.47;63.26
52957;BME280;38819;42.692;23.342;2023-02-16T09:04:06;96556.03;;;3.56;63.12
52957;BME280;38819;42.692;23.342;2023-02-16T09:06:35;96557.22;;;3.60;63.23
52957;BME280;38819;42.692;23.342;2023-02-16T09:09:01;96563.16;;;3.62;62.87
52957;BME280;38819;42.692;23.342;2023-02-16T09:11:26;96559.59;;;3.75;62.68
52957;BME280;38819;42.692;23.342;2023-02-16T09:13:52;96551.38;;;3.77;63.05
52957;BME280;38819;42.692;23.342;2023-02-16T09:16:21;96549.66;;;3.82;62.71
52957;BME280;38819;42.692;23.342;2023-02-16T09:18:48;96550.94;;;3.80;63.20
52957;BME280;38819;42.692;23.342;2023-02-16T09:21:20;96547.88;;;3.76;63.03
52957;BME280;38819;42.692;23.342;2023-02-16T09:23:48;96546.81;;;3.77;63.29
52957;BME280;38819;42.692;23.342;2023-02-16T09:26:15;96539.75;;;3.89;63.12
52957;BME280;38819;42.692;23.342;2023-02-16T09:28:41;96538.66;;;3.97;63.21
52957;BME280;38819;42.692;23.342;2023-02-16T09:31:11;96539.38;;;4.11;62.52
52957;BME280;38819;42.692;23.342;2023-02-16T09:33:38;96533.97;;;4.18;62.45
52957;BME280;38819;42.692;23.342;2023-02-16T09:36:09;96537.56;;;4.30;62.21
52957;BME280;38819;42.692;23.342;2023-02-16T09:38:35;96532.00;;;4.32;61.92
52957;BME280;38819;42.692;23.342;2023-02-16T09:41:22;96529.53;;;4.30;61.71
52957;BME280;38819;42.692;23.342;2023-02-16T09:44:02;96527.97;;;4.41;61.56
52957;BME280;38819;42.692;23.342;2023-02-16T09:46:32;96519.38;;;4.39;61.67
52957;BME280;38819;42.692;23.342;2023-02-16T09:49:00;96515.88;;;4.38;61.44
52957;BME280;38819;42.692;23.342;2023-02-16T09:51:35;96515.00;;;4.44;61.38
52957;BME280;38819;42.692;23.342;2023-02-16T09:54:31;96516.34;;;4.54;61.13
52957;BME280;38819;42.692;23.342;2023-02-16T09:57:18;96513.59;;;4.60;61.00
52957;BME280;38819;42.692;23.342;2023-02-16T09:59:51;96502.16;;;4.72;61.01
52957;BME280;38819;42.692;23.342;2023-02-16T10:08:08;96499.78;;;5.12;59.84
52957;BME280;38819;42.692;23.342;2023-02-16T10:13:21;96492.44;;;5.08;60.07
52957;BME280;38819;42.692;23.342;2023-02-16T10:15:50;96489.22;;;5.17;59.79
52957;BME280;38819;42.692;23.342;2023-02-16T10:18:26;96482.66;;;5.32;59.39
52957;BME280;38819;42.692;23.342;2023-02-16T10:20:55;96473.00;;;5.43;59.33
52957;BME280;38819;42.692;23.342;2023-02-16T10:25:55;96473.34;;;5.46;58.78
52957;BME280;38819;42.692;23.342;2023-02-16T10:28:47;96477.69;;;5.59;58.26
52957;BME280;38819;42.692;23.342;2023-02-16T10:31:22;96469.56;;;5.66;58.27
52957;BME280;38819;42.692;23.342;2023-02-16T10:39:21;96455.84;;;5.86;57.53
52957;BME280;38819;42.692;23.342;2023-02-16T10:42:03;96457.03;;;5.90;57.50
52957;BME280;38819;42.692;23.342;2023-02-16T10:44:37;96446.22;;;5.97;57.44
52957;BME280;38819;42.692;23.342;2023-02-16T10:47:14;96443.75;;;6.07;57.13
52957;BME280;38819;42.692;23.342;2023-02-16T10:49:44;96442.94;;;6.18;56.94
52957;BME280;38819;42.692;23.342;2023-02-16T10:52:12;96442.47;;;6.21;56.70
52957;BME280;38819;42.692;23.342;2023-02-16T10:54:37;96438.50;;;6.36;56.42
52957;BME280;38819;42.692;23.342;2023-02-16T10:57:05;96433.34;;;6.34;56.14
52957;BME280;38819;42.692;23.342;2023-02-16T10:59:38;96432.66;;;6.27;56.11
52957;BME280;38819;42.692;23.342;2023-02-16T11:04:47;96433.13;;;6.36;55.68
52957;BME280;38819;42.692;23.342;2023-02-16T11:07:18;96419.09;;;6.45;55.58
52957;BME280;38819;42.692;23.342;2023-02-16T11:09:47;96412.81;;;6.52;55.31
52957;BME280;38819;42.692;23.342;2023-02-16T11:17:29;96410.34;;;6.91;54.55
52957;BME280;38819;42.692;23.342;2023-02-16T11:20:07;96413.31;;;7.06;54.46
52957;BME280;38819;42.692;23.342;2023-02-16T11:22:37;96408.66;;;7.01;53.72
52957;BME280;38819;42.692;23.342;2023-02-16T11:27:53;96397.84;;;6.84;53.93
52957;BME280;38819;42.692;23.342;2023-02-16T11:30:34;96393.97;;;6.92;53.66
52957;BME280;38819;42.692;23.342;2023-02-16T11:33:03;96393.94;;;7.04;53.55
52957;BME280;38819;42.692;23.342;2023-02-16T11:35:32;96394.50;;;7.06;53.43
52957;BME280;38819;42.692;23.342;2023-02-16T11:38:05;96383.78;;;7.23;53.22
52957;BME280;38819;42.692;23.342;2023-02-16T11:40:32;96372.38;;;7.33;52.56
52957;BME280;38819;42.692;23.342;2023-02-16T11:43:00;96376.66;;;7.46;52.56
52957;BME280;38819;42.692;23.342;2023-02-16T11:48:13;96372.16;;;7.68;52.53
52957;BME280;38819;42.692;23.342;2023-02-16T11:51:27;96378.59;;;7.67;51.84
52957;BME280;38819;42.692;23.342;2023-02-16T11:54:05;96368.81;;;7.78;51.76
52957;BME280;38819;42.692;23.342;2023-02-16T11:56:33;96364.16;;;7.90;51.69
52957;BME280;38819;42.692;23.342;2023-02-16T11:59:17;96358.84;;;7.95;51.23
52957;BME280;38819;42.692;23.342;2023-02-16T12:04:53;96353.41;;;7.90;51.25
52957;BME280;38819;42.692;23.342;2023-02-16T12:24:02;96324.69;;;8.18;49.62
52957;BME280;38819;42.692;23.342;2023-02-16T12:26:46;96327.63;;;8.16;49.57
52957;BME280;38819;42.692;23.342;2023-02-16T12:43:00;96300.44;;;8.84;48.54
52957;BME280;38819;42.692;23.342;2023-02-16T12:45:34;96289.41;;;8.86;47.66
52957;BME280;38819;42.692;23.342;2023-02-16T12:50:34;96287.50;;;8.86;47.90
52957;BME280;38819;42.692;23.342;2023-02-16T12:53:16;96290.22;;;8.86;47.48
52957;BME280;38819;42.692;23.342;2023-02-16T12:55:50;96283.72;;;8.82;47.30
52957;BME280;38819;42.692;23.342;2023-02-16T12:58:27;96282.16;;;8.92;47.28
52957;BME280;38819;42.692;23.342;2023-02-16T13:00:57;96272.78;;;8.94;47.40
52957;BME280;38819;42.692;23.342;2023-02-16T13:03:37;96267.75;;;9.08;47.14
52957;BME280;38819;42.692;23.342;2023-02-16T13:08:50;96266.75;;;9.14;46.50
52957;BME280;38819;42.692;23.342;2023-02-16T13:11:39;96266.22;;;9.17;46.19
52957;BME280;38819;42.692;23.342;2023-02-16T13:14:16;96267.84;;;9.18;46.28
52957;BME280;38819;42.692;23.342;2023-02-16T13:16:44;96268.25;;;9.32;46.19
52957;BME280;38819;42.692;23.342;2023-02-16T13:19:12;96263.34;;;9.29;45.95
52957;BME280;38819;42.692;23.342;2023-02-16T13:27:31;96257.28;;;9.49;45.81
52957;BME280;38819;42.692;23.342;2023-02-16T13:32:51;96249.03;;;9.66;45.24
52957;BME280;38819;42.692;23.342;2023-02-16T13:38:40;96244.22;;;9.73;44.92
52957;BME280;38819;42.692;23.342;2023-02-16T13:43:54;96234.81;;;9.81;44.50
52957;BME280;38819;42.692;23.342;2023-02-16T13:46:24;96239.69;;;9.84;44.43
52957;BME280;38819;42.692;23.342;2023-02-16T13:48:51;96232.41;;;9.85;44.16
52957;BME280;38819;42.692;23.342;2023-02-16T13:51:19;96236.50;;;9.92;44.12
52957;BME280;38819;42.692;23.342;2023-02-16T13:54:02;96222.75;;;9.99;44.11
52957;BME280;38819;42.692;23.342;2023-02-16T13:58:55;96227.63;;;10.07;43.93
52957;BME280;38819;42.692;23.342;2023-02-16T14:03:57;96226.03;;;10.11;42.97
52957;BME280;38819;42.692;23.342;2023-02-16T14:27:49;96219.63;;;10.28;42.95
52957;BME280;38819;42.692;23.342;2023-02-16T14:30:55;96213.75;;;10.41;42.62
52957;BME280;38819;42.692;23.342;2023-02-16T14:36:14;96208.06;;;10.43;42.88
52957;BME280;38819;42.692;23.342;2023-02-16T14:41:13;96218.31;;;10.35;43.28
52957;BME280;38819;42.692;23.342;2023-02-16T14:43:50;96219.66;;;10.38;42.80
52957;BME280;38819;42.692;23.342;2023-02-16T15:03:19;96207.28;;;10.57;43.19
52957;BME280;38819;42.692;23.342;2023-02-16T15:05:56;96208.09;;;10.53;43.28
52957;BME280;38819;42.692;23.342;2023-02-16T15:08:26;96206.72;;;10.50;42.95
52957;BME280;38819;42.692;23.342;2023-02-16T15:11:00;96202.41;;;10.49;42.88
52957;BME280;38819;42.692;23.342;2023-02-16T15:13:31;96203.47;;;10.48;42.90
52957;BME280;38819;42.692;23.342;2023-02-16T15:16:02;96204.03;;;10.55;42.84
52957;BME280;38819;42.692;23.342;2023-02-16T15:18:37;96204.88;;;10.61;42.78
52957;BME280;38819;42.692;23.342;2023-02-16T15:21:03;96205.41;;;10.63;42.58
52957;BME280;38819;42.692;23.342;2023-02-16T15:23:31;96200.25;;;10.62;42.81
52957;BME280;38819;42.692;23.342;2023-02-16T15:26:03;96211.34;;;10.65;43.04
52957;BME280;38819;42.692;23.342;2023-02-16T15:28:32;96204.03;;;10.61;43.18
52957;BME280;38819;42.692;23.342;2023-02-16T15:31:13;96199.19;;;10.63;43.36
52957;BME280;38819;42.692;23.342;2023-02-16T15:33:43;96208.91;;;10.64;43.40
52957;BME280;38819;42.692;23.342;2023-02-16T15:36:18;96208.63;;;10.60;43.90
52957;BME280;38819;42.692;23.342;2023-02-16T15:41:26;96209.69;;;10.54;44.47
52957;BME280;38819;42.692;23.342;2023-02-16T15:43:55;96198.59;;;10.40;44.68
52957;BME280;38819;42.692;23.342;2023-02-16T15:46:33;96205.63;;;10.41;45.13
52957;BME280;38819;42.692;23.342;2023-02-16T15:51:38;96210.69;;;10.27;45.54
52957;BME280;38819;42.692;23.342;2023-02-16T15:54:31;96204.47;;;10.27;45.43
52957;BME280;38819;42.692;23.342;2023-02-16T16:00:15;96203.94;;;10.19;46.04
52957;BME280;38819;42.692;23.342;2023-02-16T16:02:45;96205.25;;;10.17;46.25
52957;BME280;38819;42.692;23.342;2023-02-16T16:05:24;96206.63;;;10.14;46.55
52957;BME280;38819;42.692;23.342;2023-02-16T16:07:52;96207.13;;;10.11;46.57
52957;BME280;38819;42.692;23.342;2023-02-16T16:10:37;96206.59;;;10.09;46.67
52957;BME280;38819;42.692;23.342;2023-02-16T16:13:13;96210.34;;;10.03;47.01
52957;BME280;38819;42.692;23.342;2023-02-16T16:15:43;96204.16;;;10.02;46.96